Terminal Aerodrome Forecast
Issued by NWS

Home | Current Version | Previous Version | Text Only | Print | Product List | Glossary On
Versions: 1 2 3 4 5 6 7 8 9 10 11 12 13 14 15 16 17 18
000
FTUS43 KMPX 181130
TAFRWF
TAF
KRWF 181130Z 1812/1912 21010KT P6SM BKN200
     FM181700 23014KT P6SM BKN200
     FM190700 28011KT P6SM SCT250
     FM190900 31010KT P6SM FEW250=

USA.gov is the U.S. government's official web portal to all federal, state and local government web resources and services.